Latest Weather Observations for Meekatharra

IDW60801

Issued at 8:35 pm WST Friday 25 July 2014 (issued every 30 minutes, with the page automatically refreshed every 10 minutes)

About weather observations | Map of weather stations | Latest weather observations for WA | Other Formats
Station Details ID: 007045 Name: MEEKATHARRA AIRPORT Lat: -26.61 Lon: 118.54 Height: 517.0 m
Data from the previous 72 hours. | See also: Recent months at Meekatharra
Date/Time
WST
Temp
°C
App
Temp
°C
Dew
Point
Rel
Hum
%
Delta-T
°C
Wind Press
QNH
hPa
Press
MSL
hPa
Rain
since 9 am
mm
Dir
 
Spd
km/h
Gust
km/h
Spd
kts
Gust
kts
25/08:30pm 12.4 8.6 -0.5 41 5.4 N 9 9 5 5 1022.6 - 0.0
25/08:00pm 13.2 9.5 -2.7 33 6.4 N 7 9 4 5 1022.5 - 0.0
25/07:30pm 13.8 10.3 -1.7 34 6.4 N 7 7 4 4 1022.3 - 0.0
25/07:00pm 15.2 11.5 0.0 35 6.6 N 9 9 5 5 1022.0 - 0.0
25/06:30pm 16.9 12.8 -2.8 26 8.2 N 9 9 5 5 1021.8 - 0.0
25/06:00pm 18.3 13.7 -4.1 21 9.2 NNW 11 13 6 7 1021.5 1021.1 0.0
25/05:30pm 19.9 14.8 -5.0 18 10.2 N 13 17 7 9 1021.2 - 0.0
25/05:00pm 20.8 15.9 -3.8 19 10.4 N 13 19 7 10 1021.1 - 0.0
25/04:30pm 21.2 16.3 -3.7 18 10.6 NNE 13 22 7 12 1021.1 - 0.0
25/04:00pm 21.8 15.6 -5.1 16 11.2 N 19 24 10 13 1021.1 - 0.0
25/03:30pm 21.7 15.9 -4.4 17 11.0 NNE 17 24 9 13 1021.1 - 0.0
25/03:00pm 21.5 15.9 -2.6 19 10.5 N 17 26 9 14 1021.0 1020.6 0.0
25/02:30pm 21.6 16.1 -1.9 20 10.4 N 17 28 9 15 1021.1 - 0.0
25/02:00pm 21.0 16.1 -0.8 23 9.8 NE 15 26 8 14 1021.4 - 0.0
25/01:30pm 20.5 15.2 -0.7 24 9.5 NNE 17 26 9 14 1021.7 - 0.0
25/01:00pm 20.0 14.8 0.2 26 9.0 NE 17 26 9 14 1022.1 - 0.0
25/12:30pm 20.1 14.6 0.7 27 8.9 NE 19 32 10 17 1022.8 - 0.0
25/12:00pm 18.7 13.7 1.6 32 7.9 NNE 17 26 9 14 1023.5 1023.1 0.0
25/11:30am 17.7 12.6 2.8 37 7.0 NE 19 30 10 16 1024.1 - 0.0
25/11:00am 17.3 11.9 2.5 37 6.9 NE 20 28 11 15 1024.4 - 0.0
25/10:30am 16.6 11.4 3.5 41 6.2 ENE 20 30 11 16 1024.6 - 0.0
25/10:00am 16.4 11.5 4.0 43 5.9 NE 19 28 10 15 1024.8 - 0.0
25/09:30am 14.9 10.0 4.9 51 4.8 E 20 24 11 13 1024.8 - 0.0
25/09:00am 13.9 8.6 5.1 55 4.2 ENE 22 30 12 16 1024.6 1024.2 0.0
25/08:30am 12.8 7.8 4.7 58 3.8 ENE 20 30 11 16 1024.4 - 0.0
25/08:00am 10.8 6.7 4.3 64 3.0 ESE 15 22 8 12 1024.1 - 0.0
25/07:30am 9.2 5.0 3.6 68 2.5 SE 15 19 8 10 1023.9 - 0.0
25/07:00am 7.3 3.3 2.6 72 2.0 SSE 13 17 7 9 1023.7 - 0.0
25/06:30am 7.3 2.8 2.4 71 2.1 SSE 15 19 8 10 1023.5 - 0.0
25/06:00am 6.6 2.9 2.1 73 1.9 SSE 11 13 6 7 1023.2 1022.8 0.0
25/05:30am 7.3 3.2 2.1 69 2.2 SSE 13 13 7 7 1023.0 - 0.0
25/05:00am 7.6 3.5 2.2 68 2.3 SSE 13 17 7 9 1022.9 - 0.0
25/04:30am 7.3 4.0 2.6 72 2.0 SSE 9 11 5 6 1023.1 - 0.0
25/04:00am 8.4 4.7 2.6 67 2.5 SSE 11 13 6 7 1023.1 - 0.0
25/03:30am 8.7 4.6 2.5 65 2.7 SSE 13 15 7 8 1022.9 - 0.0
25/03:00am 8.9 4.8 2.4 64 2.8 SSE 13 17 7 9 1022.7 1022.3 0.0
25/02:30am 8.1 4.3 1.7 64 2.7 SSE 11 15 6 8 1022.5 - 0.0
25/02:00am 6.7 3.1 0.5 64 2.5 SSE 9 11 5 6 1022.5 - 0.0
25/01:30am 6.2 3.0 -0.4 62 2.6 SSE 6 9 3 5 1022.6 - 0.0
25/01:00am 7.0 5.1 0.3 62 2.7 CALM 0 0 0 0 1022.9 - 0.0
25/12:30am 7.3 4.7 0.7 63 2.7 SSE 4 7 2 4 1022.9 - 0.0
25/12:00am 7.8 5.5 0.2 58 3.1 SSE 2 7 1 4 1022.8 1022.4 0.0
 
Date/Time
WST
Temp
°C
App
Temp
°C
Dew
Point
Rel
Hum
%
Delta-T
°C
Wind Press
QNH
hPa
Press
MSL
hPa
Rain
since 9 am
mm
Dir
 
Spd
km/h
Gust
km/h
Spd
kts
Gust
kts
24/11:30pm 9.4 6.3 1.4 57 3.4 SSE 7 11 4 6 1022.8 - 0.0
24/11:00pm 9.1 5.1 0.7 55 3.5 SSE 11 13 6 7 1022.8 - 0.0
24/10:30pm 9.4 5.7 -0.1 51 3.9 SSE 9 11 5 6 1023.0 - 0.0
24/10:00pm 10.6 5.7 -0.6 46 4.6 SSE 15 19 8 10 1023.2 - 0.0
24/09:30pm 11.2 7.3 0.9 49 4.4 SE 11 11 6 6 1023.1 - 0.0
24/09:00pm 11.7 7.7 0.7 47 4.7 SE 11 11 6 6 1022.9 1022.5 0.0
24/08:30pm 11.6 8.0 0.9 48 4.6 SE 9 11 5 6 1022.8 - 0.0
24/08:00pm 12.0 8.8 3.2 55 4.0 SE 9 9 5 5 1022.8 - 0.0
24/07:30pm 12.5 9.1 1.6 47 4.8 SE 9 11 5 6 1022.6 - 0.0
24/07:00pm 13.2 9.7 1.4 44 5.2 SSE 9 9 5 5 1022.4 - 0.0
24/06:30pm 14.0 10.6 1.7 43 5.5 SSE 9 11 5 6 1021.9 - 0.0
24/06:00pm 15.2 11.8 2.0 41 6.0 SSE 9 11 5 6 1021.8 1021.4 0.0
24/05:30pm 16.6 12.4 -0.7 31 7.5 SSE 11 17 6 9 1021.7 - 0.0
24/05:00pm 17.2 13.0 -0.7 29 7.8 SE 11 19 6 10 1021.5 - 0.0
24/04:30pm 17.5 13.3 -1.2 28 8.1 SE 11 17 6 9 1021.3 - 0.0
24/04:00pm 17.6 13.0 -1.4 27 8.2 ESE 13 22 7 12 1021.1 - 0.0
24/03:30pm 17.8 12.9 -0.3 29 8.0 SSE 15 24 8 13 1021.1 - 0.0
24/03:00pm 17.9 13.5 0.2 30 7.9 SSE 13 19 7 10 1021.1 1020.7 0.0
24/02:30pm 17.9 13.1 0.2 30 7.9 SE 15 22 8 12 1021.2 - 0.0
24/02:00pm 17.6 13.1 0.0 30 7.8 ESE 13 24 7 13 1021.4 - 0.0
24/01:30pm 17.5 12.7 0.2 31 7.7 ESE 15 24 8 13 1021.8 - 0.0
24/01:00pm 16.5 12.2 1.2 35 6.9 ESE 13 20 7 11 1022.0 - 0.0
24/12:30pm 16.5 11.4 0.9 34 7.0 ESE 17 30 9 16 1022.8 - 0.0
24/12:00pm 15.6 10.5 1.0 37 6.5 SE 17 28 9 15 1023.4 1023.0 0.0
24/11:30am 15.1 11.4 2.4 42 5.8 S 11 20 6 11 1023.7 - 0.0
24/11:00am 14.8 10.8 2.8 44 5.5 SSE 13 19 7 10 1024.0 - 0.0
24/10:30am 13.6 10.1 3.4 50 4.7 S 11 17 6 9 1024.5 - 0.0
24/10:00am 13.0 9.3 2.3 48 4.8 S 11 13 6 7 1024.7 - 0.0
24/09:30am 11.6 8.7 1.4 49 4.4 S 6 11 3 6 1025.0 - 0.0
24/09:00am 10.9 9.2 1.9 54 3.9 CALM 0 0 0 0 1025.0 1024.6 0.0
24/08:30am 9.1 7.0 1.6 59 3.2 S 2 7 1 4 1024.5 - 0.0
24/08:00am 6.6 3.7 1.5 70 2.1 S 6 9 3 5 1024.3 - 0.0
24/07:30am 4.9 1.7 0.6 74 1.7 S 7 9 4 5 1023.8 - 0.0
24/07:00am 3.3 -0.8 -0.1 78 1.3 S 11 11 6 6 1023.3 - 0.0
24/06:30am 3.0 -0.3 0.1 81 1.1 SSE 7 9 4 5 1023.1 - 0.0
24/06:00am 3.3 0.1 1.0 85 0.9 SSE 7 9 4 5 1022.8 1022.4 0.0
24/05:30am 3.3 -0.3 0.5 82 1.1 SSE 9 11 5 6 1022.4 - 0.0
24/05:00am 3.2 -0.1 0.4 82 1.1 SSE 7 9 4 5 1022.3 - 0.0
24/04:30am 3.3 0.2 -0.1 78 1.3 SSE 6 7 3 4 1022.1 - 0.0
24/04:00am 3.5 0.3 0.7 82 1.1 SSE 7 7 4 4 1022.1 - 0.0
24/03:30am 3.2 0.2 0.6 83 1.0 SSE 6 6 3 3 1022.1 - 0.0
24/03:00am 4.3 1.1 -0.4 71 1.8 SSE 6 6 3 3 1022.4 1021.9 0.0
24/02:30am 5.1 2.1 0.9 74 1.7 SSE 6 7 3 4 1022.4 - 0.0
24/02:00am 5.3 2.3 1.9 79 1.4 SSE 7 9 4 5 1022.5 - 0.0
24/01:30am 5.1 2.2 1.7 79 1.4 SSE 6 7 3 4 1022.6 - 0.0
24/01:00am 6.0 3.2 2.2 76 1.6 SSE 6 7 3 4 1022.5 - 0.0
24/12:30am 6.6 3.6 2.3 74 1.8 SSE 7 7 4 4 1022.5 - 0.0
24/12:00am 7.3 4.3 2.1 69 2.2 SSE 7 9 4 5 1022.6 1022.2 0.0
 
Date/Time
WST
Temp
°C
App
Temp
°C
Dew
Point
Rel
Hum
%
Delta-T
°C
Wind Press
QNH
hPa
Press
MSL
hPa
Rain
since 9 am
mm
Dir
 
Spd
km/h
Gust
km/h
Spd
kts
Gust
kts
23/11:30pm 8.0 4.6 1.9 65 2.6 S 9 11 5 6 1022.5 - 0.0
23/11:00pm 8.7 4.5 1.9 62 2.9 SSE 13 17 7 9 1022.4 - 0.0
23/10:30pm 9.1 4.9 1.9 60 3.1 SSE 13 17 7 9 1022.4 - 0.0
23/10:00pm 9.5 5.3 1.8 58 3.3 SSE 13 15 7 8 1022.3 - 0.0
23/09:30pm 10.1 5.5 1.7 56 3.6 S 15 20 8 11 1022.4 - 0.0
23/09:00pm 10.5 5.9 1.4 53 3.9 S 15 20 8 11 1022.4 1021.9 0.0
23/08:30pm 10.9 6.5 0.5 48 4.4 S 13 17 7 9 1022.3 - 0.0
23/08:00pm 11.1 7.0 -0.5 44 4.8 S 11 15 6 8 1022.3 - 0.0
23/07:30pm 12.1 7.9 -0.6 41 5.3 SSW 11 13 6 7 1021.9 - 0.0
23/07:00pm 13.1 8.9 -0.7 38 5.8 SSW 11 15 6 8 1021.6 - 0.0
23/06:30pm 13.4 8.8 -0.9 37 6.0 SSW 13 15 7 8 1021.4 - 0.0
23/06:00pm 14.0 9.0 -1.0 35 6.3 SSW 15 19 8 10 1021.1 1020.7 0.0
23/05:30pm 14.8 9.5 -0.6 35 6.6 S 17 20 9 11 1020.9 - 0.0
23/05:00pm 15.7 9.9 -1.2 31 7.2 SW 19 24 10 13 1020.6 - 0.0
23/04:30pm 16.0 11.0 -1.4 30 7.4 SSW 15 24 8 13 1020.4 - 0.0
23/04:00pm 16.2 11.2 -1.0 31 7.4 SW 15 32 8 17 1020.2 - 0.0
23/03:30pm 16.5 11.1 -1.6 29 7.7 SW 17 28 9 15 1020.3 - 0.0
23/03:00pm 16.1 10.7 -1.2 30 7.4 SW 17 26 9 14 1020.4 1019.9 0.0
23/02:30pm 15.4 10.9 -0.3 34 6.8 SW 13 22 7 12 1020.4 - 0.0
23/02:00pm 16.0 11.6 0.4 34 6.9 S 13 20 7 11 1020.5 - 0.0
23/01:30pm 15.7 12.1 0.5 35 6.7 SSE 9 17 5 9 1020.7 - 0.0
23/01:00pm 15.0 10.8 1.7 40 6.0 S 13 20 7 11 1021.1 - 0.0
23/12:30pm 14.3 10.9 1.8 42 5.6 SSE 9 17 5 9 1021.5 - 0.0
23/12:00pm 13.3 9.1 1.8 45 5.1 SSW 13 24 7 13 1022.3 1021.8 0.0
23/11:30am 13.9 9.3 1.5 43 5.5 S 15 24 8 13 1022.8 - 0.0
23/11:00am 12.3 7.4 2.2 50 4.5 SSW 17 26 9 14 1023.2 - 0.0
23/10:30am 12.6 7.4 2.3 49 4.6 S 19 26 10 14 1023.4 - 0.0
23/10:00am 11.9 6.2 2.7 53 4.1 S 22 28 12 15 1023.3 - 0.0
23/09:30am 10.9 5.8 3.9 62 3.2 S 20 28 11 15 1023.4 - 0.0
23/09:00am 9.5 4.5 4.7 72 2.2 S 20 28 11 15 1023.8 1023.4 0.0
23/08:30am 8.2 4.0 3.9 74 1.9 S 15 19 8 10 1023.5 - 0.0
23/08:00am 6.6 3.4 3.1 78 1.5 SSW 9 11 5 6 1023.4 - 0.0
23/07:30am 4.9 1.8 1.5 79 1.4 SSW 7 9 4 5 1023.1 - 0.0
23/07:00am 3.2 0.1 1.4 88 0.7 SSW 7 9 4 5 1022.9 - 0.0
23/06:30am 4.0 1.0 1.8 85 0.9 SSW 7 9 4 5 1022.9 - 0.0
23/06:00am 4.0 0.1 1.0 81 1.2 SSW 11 13 6 7 1022.6 1022.2 0.0
23/05:30am 4.0 0.5 1.3 82 1.1 SSW 9 11 5 6 1022.1 - 0.0
23/05:00am 4.6 0.4 1.4 80 1.3 S 13 13 7 7 1021.8 - 0.0
23/04:30am 5.1 1.3 1.7 79 1.4 S 11 13 6 7 1021.7 - 0.0
23/04:00am 4.6 1.1 1.1 78 1.4 S 9 9 5 5 1021.4 - 0.0
23/03:30am 5.3 1.7 0.8 73 1.8 S 9 13 5 7 1021.3 - 0.0
23/03:00am 4.5 1.3 0.7 76 1.5 SSW 7 9 4 5 1021.3 1020.9 0.0
23/02:30am 5.4 2.3 1.2 74 1.7 S 7 9 4 5 1021.4 - 0.0
23/02:00am 5.8 1.8 0.6 69 2.1 S 11 11 6 6 1021.4 - 0.0
23/01:30am 6.2 2.6 0.8 68 2.2 S 9 9 5 5 1021.6 - 0.0
23/01:00am 6.6 3.1 1.0 67 2.3 S 9 11 5 6 1021.8 - 0.0
23/12:30am 7.2 3.6 0.9 64 2.6 S 9 11 5 6 1021.4 - 0.0
23/12:00am 7.3 3.8 1.3 65 2.5 S 9 11 5 6 1021.4 1021.0 0.0
 
Date/Time
WST
Temp
°C
App
Temp
°C
Dew
Point
Rel
Hum
%
Delta-T
°C
Wind Press
QNH
hPa
Press
MSL
hPa
Rain
since 9 am
mm
Dir
 
Spd
km/h
Gust
km/h
Spd
kts
Gust
kts
22/11:30pm 8.5 4.6 1.1 59 3.1 S 11 13 6 7 1021.5 - 0.0
22/11:00pm 6.8 3.3 1.2 67 2.3 SSW 9 9 5 5 1021.7 - 0.0
22/10:30pm 7.9 5.0 1.2 62 2.8 SSW 6 7 3 4 1021.8 - 0.0
22/10:00pm 9.5 6.0 1.2 56 3.5 SW 9 11 5 6 1021.6 - 0.0
22/09:30pm 9.9 6.4 1.5 56 3.6 SW 9 9 5 5 1021.5 - 0.0
22/09:00pm 11.0 7.2 1.5 52 4.1 SW 11 13 6 7 1021.3 1020.9 0.0

Other Formats:

Comma delimited format used in spreadsheet applications
http://www.bom.gov.au/fwo/IDW60801/IDW60801.94430.axf

JavaScript Object Notation format (JSON) in row-major order
http://www.bom.gov.au/fwo/IDW60801/IDW60801.94430.json